createdAt,value
2023-04-01T00:02:00.385Z,27.45
2023-04-01T00:04:30.025Z,31.75
2023-04-01T00:06:59.635Z,35.03
2023-04-01T00:09:29.950Z,40.38
2023-04-01T00:11:59.872Z,30.40
2023-04-01T00:14:30.494Z,29.52
2023-04-01T00:17:00.357Z,32.88
2023-04-01T00:19:31.051Z,37.60
2023-04-01T00:22:01.833Z,34.48
2023-04-01T00:24:31.681Z,33.30
2023-04-01T00:27:01.621Z,28.90
2023-04-01T00:29:34.388Z,34.98
2023-04-01T00:32:04.188Z,34.67
2023-04-01T00:34:33.737Z,35.38
2023-04-01T00:37:03.212Z,27.10
2023-04-01T00:39:34.102Z,27.42
2023-04-01T00:42:04.707Z,35.65
2023-04-01T00:44:36.434Z,28.52
2023-04-01T00:47:06.332Z,29.00
2023-04-01T00:49:45.005Z,29.35
2023-04-01T00:52:17.643Z,29.35
2023-04-01T00:57:29.387Z,31.35
2023-04-01T01:00:01.690Z,31.30
2023-04-01T01:02:32.969Z,32.37
2023-04-01T01:05:03.474Z,36.17
2023-04-01T01:07:38.956Z,31.93
2023-04-01T01:10:14.390Z,32.20
2023-04-01T01:12:47.016Z,28.45
2023-04-01T01:15:28.416Z,32.53
2023-04-01T01:18:00.999Z,39.60
2023-04-01T01:20:36.402Z,27.30
2023-04-01T01:23:21.412Z,28.42
2023-04-01T01:26:02.910Z,32.48
2023-04-01T01:28:38.200Z,26.77
2023-04-01T01:31:33.590Z,33.10
2023-04-01T01:34:18.147Z,27.80
2023-04-01T01:36:51.052Z,29.65
2023-04-01T01:39:22.109Z,30.32
2023-04-01T01:41:52.090Z,35.35
2023-04-01T01:44:42.571Z,26.00
2023-04-01T01:47:13.613Z,34.70
2023-04-01T01:50:03.270Z,33.20
2023-04-01T01:52:32.900Z,33.33
2023-04-01T01:55:02.668Z,29.18
2023-04-01T01:57:39.863Z,32.57
2023-04-01T02:00:16.412Z,28.67
2023-04-01T02:02:48.826Z,34.92
2023-04-01T02:07:56.355Z,35.00
2023-04-01T02:10:28.526Z,41.25
2023-04-01T02:13:01.174Z,33.57
2023-04-01T02:15:34.219Z,27.13
2023-04-01T02:18:06.068Z,33.38
2023-04-01T02:20:39.698Z,31.65
2023-04-01T02:25:48.881Z,23.15
2023-04-01T02:30:52.598Z,30.27
2023-04-01T02:33:23.957Z,35.05
2023-04-01T02:35:53.481Z,35.80
2023-04-01T02:38:23.700Z,42.20
2023-04-01T02:40:56.468Z,38.95
2023-04-01T02:43:26.096Z,28.75
2023-04-01T02:45:55.800Z,31.80
2023-04-01T02:48:26.333Z,34.25
2023-04-01T02:50:56.824Z,35.15
2023-04-01T02:53:26.358Z,38.98
2023-04-01T02:55:57.265Z,28.23
2023-04-01T02:58:26.869Z,33.25
2023-04-01T03:00:56.814Z,25.32
2023-04-01T03:03:27.684Z,29.52
2023-04-01T03:05:59.466Z,38.02
2023-04-01T03:08:28.934Z,35.25
2023-04-01T03:11:00.210Z,27.25
2023-04-01T03:13:30.297Z,32.67
2023-04-01T03:15:59.944Z,38.05
2023-04-01T03:18:30.138Z,31.40
2023-04-01T03:20:59.815Z,32.40
2023-04-01T03:23:29.358Z,37.00
2023-04-01T03:25:58.849Z,37.63
2023-04-01T03:28:28.690Z,34.10
2023-04-01T03:30:58.920Z,31.95
2023-04-01T03:33:28.479Z,35.23
2023-04-01T03:35:59.460Z,31.15
2023-04-01T03:38:29.131Z,29.63
2023-04-01T03:40:58.626Z,28.17
2023-04-01T03:43:28.859Z,33.13
2023-04-01T03:45:59.081Z,30.97
2023-04-01T03:48:30.298Z,27.05
2023-04-01T03:51:00.548Z,33.38
2023-04-01T03:53:31.203Z,32.17
2023-04-01T03:56:02.691Z,27.85
2023-04-01T03:58:32.270Z,30.17
2023-04-01T04:01:03.897Z,27.73
2023-04-01T04:03:34.456Z,32.90
2023-04-01T04:06:04.836Z,37.28
2023-04-01T04:08:34.453Z,34.53
2023-04-01T04:11:03.933Z,30.50
2023-04-01T04:13:33.569Z,31.87
2023-04-01T04:16:05.870Z,34.13
2023-04-01T04:18:36.322Z,30.95
2023-04-01T04:21:06.863Z,31.37
2023-04-01T04:23:37.980Z,36.20
2023-04-01T04:26:10.652Z,28.77
2023-04-01T04:28:41.661Z,25.40
2023-04-01T04:31:11.339Z,28.83
2023-04-01T04:33:42.594Z,32.42
2023-04-01T04:36:12.262Z,32.78
2023-04-01T04:38:41.955Z,36.43
2023-04-01T04:41:14.193Z,28.65
2023-04-01T04:46:13.991Z,31.42
2023-04-01T04:48:45.676Z,36.73
2023-04-01T04:51:21.607Z,39.70
2023-04-01T04:53:52.991Z,39.60
2023-04-01T04:56:27.117Z,41.18
2023-04-01T04:59:02.028Z,31.12
2023-04-01T05:01:34.438Z,35.73
2023-04-01T05:04:03.957Z,24.67
2023-04-01T05:06:33.654Z,34.83
2023-04-01T05:09:03.976Z,27.17
2023-04-01T05:11:33.469Z,28.35
2023-04-01T05:14:03.127Z,40.92
2023-04-01T05:16:34.085Z,38.67
2023-04-01T05:19:03.639Z,37.07
2023-04-01T05:21:35.088Z,29.70
2023-04-01T05:24:04.779Z,35.00
2023-04-01T05:26:34.360Z,32.70
2023-04-01T05:29:05.504Z,37.42
2023-04-01T05:31:35.763Z,32.37
2023-04-01T05:34:07.169Z,33.78
2023-04-01T05:36:36.725Z,30.23
2023-04-01T05:39:06.546Z,30.77
2023-04-01T05:41:41.301Z,30.70
2023-04-01T05:44:14.260Z,30.25
2023-04-01T05:46:45.535Z,37.80
2023-04-01T05:49:20.374Z,33.65
2023-04-01T05:51:50.626Z,27.27
2023-04-01T05:54:22.242Z,37.80
2023-04-01T05:56:52.991Z,24.70
2023-04-01T05:59:23.113Z,39.53
2023-04-01T06:01:53.338Z,27.87
2023-04-01T06:04:23.469Z,31.27
2023-04-01T06:06:53.475Z,30.08
2023-04-01T06:09:28.664Z,35.23
2023-04-01T06:12:17.329Z,29.50
2023-04-01T06:15:10.913Z,32.67
2023-04-01T06:18:02.110Z,38.47
2023-04-01T06:20:43.575Z,35.15
2023-04-01T06:23:29.171Z,28.50
2023-04-01T06:26:02.182Z,33.80
2023-04-01T06:29:03.143Z,32.37
2023-04-01T06:31:58.815Z,27.97
2023-04-01T06:34:34.436Z,36.47
2023-04-01T06:37:29.789Z,26.97
2023-04-01T06:40:27.174Z,28.90
2023-04-01T06:43:09.346Z,31.82
2023-04-01T06:46:04.479Z,29.35
2023-04-01T06:48:59.466Z,27.60
2023-04-01T06:51:58.569Z,33.40
2023-04-01T06:54:47.781Z,33.85
2023-04-01T06:57:38.301Z,29.98
2023-04-01T07:00:16.882Z,35.73
2023-04-01T07:02:59.793Z,30.70
2023-04-01T07:08:04.721Z,34.38
2023-04-01T07:10:43.981Z,28.32
2023-04-01T07:13:43.173Z,27.17
2023-04-01T07:16:34.793Z,25.65
2023-04-01T07:19:33.761Z,21.73
2023-04-01T07:22:34.078Z,34.30
2023-04-01T07:25:17.571Z,30.08
2023-04-01T07:27:49.325Z,28.50
2023-04-01T07:30:21.576Z,31.90
2023-04-01T07:32:56.822Z,27.55
2023-04-01T07:35:32.951Z,21.45
2023-04-01T07:38:12.089Z,30.20
2023-04-01T07:40:56.711Z,32.35
2023-04-01T07:43:46.075Z,31.45
2023-04-01T07:46:32.751Z,24.50
2023-04-01T07:49:17.930Z,35.25
2023-04-01T07:51:54.490Z,21.52
2023-04-01T07:54:53.334Z,28.65
2023-04-01T07:58:01.103Z,36.45
2023-04-01T08:00:34.615Z,32.13
2023-04-01T08:03:28.470Z,33.53
2023-04-01T08:06:04.842Z,27.55
2023-04-01T08:08:38.353Z,30.45
2023-04-01T08:11:31.978Z,31.65
2023-04-01T08:17:09.292Z,32.50
2023-04-01T08:19:47.200Z,27.67
2023-04-01T08:22:20.510Z,24.70
2023-04-01T08:24:52.974Z,28.63
2023-04-01T08:27:42.771Z,23.00
2023-04-01T08:30:24.475Z,24.98
2023-04-01T08:32:59.867Z,29.05
2023-04-01T08:35:34.986Z,23.70
2023-04-01T08:38:35.539Z,25.18
2023-04-01T08:41:23.731Z,30.02
2023-04-01T08:44:23.412Z,22.80
2023-04-01T08:46:57.395Z,22.48
2023-04-01T08:50:05.430Z,20.77
2023-04-01T08:53:01.136Z,23.15
2023-04-01T08:55:39.326Z,17.65
2023-04-01T08:58:28.804Z,17.52
2023-04-01T09:01:14.810Z,14.28
2023-04-01T09:04:05.855Z,26.30
2023-04-01T09:06:41.756Z,14.78
2023-04-01T09:09:36.852Z,18.65
2023-04-01T09:12:36.721Z,15.48
2023-04-01T09:15:18.920Z,17.37
2023-04-01T09:18:03.229Z,13.57
2023-04-01T09:20:51.512Z,16.27
2023-04-01T09:23:42.235Z,12.40
2023-04-01T09:26:34.198Z,6.30
2023-04-01T09:29:22.809Z,9.78
2023-04-01T09:32:16.600Z,11.33
2023-04-01T09:35:19.300Z,9.88
2023-04-01T09:38:04.371Z,9.40
2023-04-01T09:40:53.985Z,12.37
2023-04-01T09:43:37.483Z,12.68
2023-04-01T09:46:40.932Z,10.30
2023-04-01T09:49:46.492Z,15.68
2023-04-01T09:52:31.702Z,11.83
2023-04-01T09:55:07.494Z,13.08
2023-04-01T09:57:54.403Z,10.30
2023-04-01T10:01:04.128Z,8.03
2023-04-01T10:03:55.756Z,6.65
2023-04-01T10:06:45.273Z,9.45
2023-04-01T10:09:44.922Z,12.10
2023-04-01T10:12:23.484Z,5.87
2023-04-01T10:15:11.421Z,12.73
2023-04-01T10:17:47.221Z,19.30
2023-04-01T10:20:42.786Z,13.90
2023-04-01T10:23:35.954Z,12.25
2023-04-01T10:26:18.762Z,10.32
2023-04-01T10:28:58.428Z,9.68
2023-04-01T10:32:04.599Z,11.75
2023-04-01T10:34:53.646Z,18.37
2023-04-01T10:37:44.242Z,16.15
2023-04-01T10:40:33.615Z,61.37
2023-04-01T10:43:19.567Z,12.75
2023-04-01T10:46:08.254Z,16.90
2023-04-01T10:48:47.165Z,21.25
2023-04-01T10:51:22.411Z,9.83
2023-04-01T10:54:19.115Z,8.70
2023-04-01T10:57:15.117Z,15.50
2023-04-01T11:00:07.138Z,11.35
2023-04-01T11:03:09.636Z,13.48
2023-04-01T11:06:12.451Z,15.75
2023-04-01T11:08:54.040Z,15.83
2023-04-01T11:11:27.522Z,13.03
2023-04-01T11:16:56.022Z,11.80
2023-04-01T11:19:40.823Z,8.40
2023-04-01T11:22:20.031Z,12.98
2023-04-01T11:25:11.569Z,10.40
2023-04-01T11:28:05.208Z,7.90
2023-04-01T11:30:49.551Z,7.60
2023-04-01T11:33:40.398Z,11.00
2023-04-01T11:36:25.240Z,12.88
2023-04-01T11:39:17.595Z,5.25
2023-04-01T11:42:19.081Z,8.88
2023-04-01T11:45:09.972Z,9.05
2023-04-01T11:47:58.123Z,6.97
2023-04-01T11:50:54.778Z,4.50
2023-04-01T11:53:33.111Z,5.47
2023-04-01T11:56:11.354Z,5.37
2023-04-01T11:59:10.736Z,4.92
2023-04-01T12:02:03.868Z,5.28
2023-04-01T12:04:45.245Z,4.40
2023-04-01T12:07:34.228Z,9.40
2023-04-01T12:10:22.992Z,6.28
2023-04-01T12:13:01.580Z,5.92
2023-04-01T12:15:45.016Z,9.28
2023-04-01T12:18:29.329Z,5.50
2023-04-01T12:21:08.147Z,9.25
2023-04-01T12:23:55.411Z,6.15
2023-04-01T12:26:50.533Z,7.83
2023-04-01T12:29:31.818Z,5.37
2023-04-01T12:32:16.573Z,9.05
2023-04-01T12:34:59.659Z,6.87
2023-04-01T12:37:35.079Z,5.70
2023-04-01T12:40:10.431Z,8.83
2023-04-01T12:42:51.935Z,8.98
2023-04-01T12:45:31.787Z,7.37
2023-04-01T12:48:17.483Z,6.47
2023-04-01T12:51:01.272Z,8.53
2023-04-01T12:53:48.954Z,8.18
2023-04-01T12:56:42.270Z,10.20
2023-04-01T12:59:52.761Z,7.90
2023-04-01T13:02:54.175Z,8.17
2023-04-01T13:05:36.338Z,5.60
2023-04-01T13:08:23.854Z,7.33
2023-04-01T13:11:20.296Z,7.87
2023-04-01T13:14:09.314Z,6.97
2023-04-01T13:16:58.592Z,6.70
2023-04-01T13:19:31.119Z,5.40
2023-04-01T13:22:22.087Z,5.30
2023-04-01T13:25:09.639Z,8.15
2023-04-01T13:27:42.277Z,7.72
2023-04-01T13:33:05.868Z,7.45
2023-04-01T13:36:02.257Z,8.60
2023-04-01T13:38:51.269Z,4.40
2023-04-01T13:41:26.586Z,8.60
2023-04-01T13:44:11.353Z,5.35
2023-04-01T13:47:03.215Z,5.45
2023-04-01T13:49:40.264Z,7.65
2023-04-01T13:52:23.028Z,6.95
2023-04-01T13:55:15.580Z,9.48
2023-04-01T13:58:03.107Z,7.47
2023-04-01T14:00:55.116Z,6.55
2023-04-01T14:03:30.735Z,6.75
2023-04-01T14:06:13.016Z,10.98
2023-04-01T14:09:04.649Z,4.20
2023-04-01T14:11:43.244Z,9.80
2023-04-01T14:14:18.874Z,7.20
2023-04-01T14:17:21.691Z,12.33
2023-04-01T14:19:56.098Z,9.43
2023-04-01T14:22:31.626Z,7.90
2023-04-01T14:25:16.254Z,8.98
2023-04-01T14:28:03.946Z,9.10
2023-04-01T14:30:56.539Z,5.50
2023-04-01T14:33:48.094Z,7.20
2023-04-01T14:36:32.648Z,8.75
2023-04-01T14:39:20.048Z,6.45
2023-04-01T14:42:18.929Z,7.00
2023-04-01T14:44:47.734Z,10.32
2023-04-01T14:47:22.973Z,12.23
2023-04-01T14:50:08.445Z,11.90
2023-04-01T14:52:43.643Z,13.53
2023-04-01T14:55:31.803Z,9.33
2023-04-01T14:58:17.024Z,9.23
2023-04-01T15:00:52.024Z,11.28
2023-04-01T15:03:36.674Z,7.28
2023-04-01T15:06:35.133Z,5.95
2023-04-01T15:09:33.191Z,8.05
2023-04-01T15:12:25.173Z,8.35
2023-04-01T15:15:26.353Z,9.03
2023-04-01T15:18:13.542Z,14.53
2023-04-01T15:21:09.008Z,5.75
2023-04-01T15:23:53.344Z,7.40
2023-04-01T15:26:48.328Z,9.73
2023-04-01T15:29:51.129Z,7.17
2023-04-01T15:32:41.231Z,6.27
2023-04-01T15:35:38.236Z,6.15
2023-04-01T15:38:30.177Z,7.20
2023-04-01T15:41:11.449Z,5.97
2023-04-01T15:43:53.397Z,7.40
2023-04-01T15:46:33.655Z,5.70
2023-04-01T15:49:21.367Z,5.53
2023-04-01T15:52:14.016Z,6.47
2023-04-01T15:54:49.242Z,3.50
2023-04-01T15:57:42.120Z,6.62
2023-04-01T16:00:29.813Z,6.95
2023-04-01T16:03:06.919Z,7.95
2023-04-01T16:06:14.077Z,5.85
2023-04-01T16:08:59.379Z,4.67
2023-04-01T16:11:43.886Z,7.85
2023-04-01T16:14:21.916Z,6.95
2023-04-01T16:16:57.202Z,5.03
2023-04-01T16:19:52.287Z,6.65
2023-04-01T16:22:30.739Z,9.25
2023-04-01T16:25:23.037Z,6.00
2023-04-01T16:28:21.008Z,7.40
2023-04-01T16:30:53.616Z,9.03
2023-04-01T16:36:10.168Z,13.10
2023-04-01T16:38:52.274Z,10.03
2023-04-01T16:41:24.852Z,11.57
2023-04-01T16:44:16.975Z,24.77
2023-04-01T16:46:55.255Z,21.45
2023-04-01T16:49:36.555Z,14.90
2023-04-01T16:52:12.113Z,17.92
2023-04-01T16:54:57.933Z,14.73
2023-04-01T16:57:48.909Z,15.72
2023-04-01T17:00:30.599Z,10.38
2023-04-01T17:03:17.075Z,16.70
2023-04-01T17:06:04.480Z,10.40
2023-04-01T17:08:52.373Z,7.90
2023-04-01T17:11:33.496Z,14.67
2023-04-01T17:14:31.316Z,38.00
2023-04-01T17:17:06.662Z,22.10
2023-04-01T17:20:05.402Z,15.65
2023-04-01T17:22:37.950Z,25.62
2023-04-01T17:25:31.845Z,13.53
2023-04-01T17:28:07.218Z,9.50
2023-04-01T17:31:02.356Z,9.03
2023-04-01T17:33:41.082Z,10.80
2023-04-01T17:36:43.807Z,15.63
2023-04-01T17:39:21.881Z,15.17
2023-04-01T17:41:57.427Z,18.27
2023-04-01T17:44:32.876Z,10.23
2023-04-01T17:47:27.944Z,11.75
2023-04-01T17:50:21.674Z,13.45
2023-04-01T17:53:02.609Z,14.63
2023-04-01T17:55:54.783Z,7.20
2023-04-01T17:58:33.195Z,7.37
2023-04-01T18:01:08.614Z,10.05
2023-04-01T18:03:58.149Z,13.65
2023-04-01T18:06:40.164Z,7.35
2023-04-01T18:09:12.739Z,8.03
2023-04-01T18:11:48.065Z,7.67
2023-04-01T18:14:38.315Z,13.07
2023-04-01T18:17:23.210Z,6.70
2023-04-01T18:20:05.007Z,6.58
2023-04-01T18:22:46.901Z,9.85
2023-04-01T18:25:25.920Z,8.08
2023-04-01T18:27:58.457Z,12.13
2023-04-01T18:30:34.117Z,8.35
2023-04-01T18:33:37.007Z,6.60
2023-04-01T18:36:15.950Z,8.17
2023-04-01T18:39:00.447Z,7.58
2023-04-01T18:41:58.466Z,9.45
2023-04-01T18:44:33.722Z,5.35
2023-04-01T18:47:27.682Z,10.93
2023-04-01T18:50:15.083Z,14.78
2023-04-01T18:52:46.923Z,11.60
2023-04-01T18:55:36.320Z,11.13
2023-04-01T18:58:17.573Z,9.00
2023-04-01T19:01:05.418Z,5.42
2023-04-01T19:03:38.180Z,7.87
2023-04-01T19:08:54.908Z,12.70
2023-04-01T19:11:47.319Z,10.63
2023-04-01T19:14:45.678Z,8.50
2023-04-01T19:17:34.672Z,11.93
2023-04-01T19:20:16.848Z,6.70
2023-04-01T19:22:58.249Z,7.97
2023-04-01T19:25:46.990Z,6.45
2023-04-01T19:28:19.529Z,7.28
2023-04-01T19:30:55.033Z,9.13
2023-04-01T19:33:39.475Z,8.15
2023-04-01T19:36:27.802Z,6.95
2023-04-01T19:39:27.486Z,7.83
2023-04-01T19:42:19.396Z,6.20
2023-04-01T19:45:03.884Z,9.25
2023-04-01T19:47:48.422Z,13.03
2023-04-01T19:50:34.573Z,12.20
2023-04-01T19:53:16.479Z,9.30
2023-04-01T19:55:51.548Z,10.70
2023-04-01T19:58:24.483Z,9.33
2023-04-01T20:03:33.635Z,7.35
2023-04-01T20:06:08.908Z,9.83
2023-04-01T20:08:41.531Z,8.50
2023-04-01T20:11:26.283Z,4.58
2023-04-01T20:14:07.598Z,10.60
2023-04-01T20:16:52.360Z,10.48
2023-04-01T20:19:27.913Z,71.67
2023-04-01T20:22:01.353Z,181.50
2023-04-01T20:24:46.093Z,98.27
2023-04-01T20:27:22.140Z,31.23
2023-04-01T20:30:19.053Z,41.30
2023-04-01T20:33:09.681Z,22.32
2023-04-01T20:36:08.699Z,13.55
2023-04-01T20:38:56.555Z,10.80
2023-04-01T20:41:29.132Z,9.98
2023-04-01T20:44:17.342Z,16.00
2023-04-01T20:46:50.487Z,45.38
2023-04-01T20:49:37.528Z,59.18
2023-04-01T20:52:19.280Z,43.20
2023-04-01T20:55:01.017Z,10.15
2023-04-01T20:57:36.591Z,12.93
2023-04-01T21:00:15.546Z,12.82
2023-04-01T21:03:00.030Z,17.48
2023-04-01T21:05:49.001Z,14.27
2023-04-01T21:08:22.095Z,9.88
2023-04-01T21:11:10.160Z,13.50
2023-04-01T21:13:58.172Z,19.12
2023-04-01T21:16:39.437Z,12.23
2023-04-01T21:19:31.982Z,14.85
2023-04-01T21:22:17.626Z,10.93
2023-04-01T21:24:59.330Z,12.25
2023-04-01T21:27:46.193Z,15.85
2023-04-01T21:30:45.857Z,17.37
2023-04-01T21:33:27.138Z,14.00
